»·PEaware :: N228Q KGTF-KHLN

N228Q :: KGTF-KHLN

FLIGHT INFORMATION

Flight Status: Arrived
Operator: Privately registered:
United States
More flights under this callsign
Pilot: Chuck O. (4337)
Aircraft: BEECH AIRCRAFT BONANZA
(BE35)
More flights by this aircraft type
Origin: KGTF Great Falls Intl
United States
Destination: KHLN Helena Regl
United States
More flights between these airports :: More routes between these airports
Route: GTF V536 SWEDD
File this flight plan on PilotEdge
Remarks:
Altitude:
(Current/Filed)
10,500ft
Speed:
(Current/Filed)
160kts
Departed: 06-Oct-20 03:40 PM
Arrived: 06-Oct-20 04:15 PM
Distance/Time
Traveled:
59nm/0:35
Distance/Time
To Go:
Arrived

Flight Plot

Page will automatically refresh every two minutes.

Flight plan parsing failed; only flown route is shown


Map Options




Map Legend


Flown Route
Filed Route
Departure Airport
Arrival Airport
Navaid (VOR, NDB)
Fix

Horizontal Profiles

Position Reports

Time Latitude Longitude Heading Altitude Ground
Speed
06-Oct-20 15:34 47.485615 -111.355181 310 3680ft 0kts
06-Oct-20 15:35 47.485975 -111.355473 355 3680ft 0kts
06-Oct-20 15:36 47.486125 -111.355481 1 3680ft 4kts
06-Oct-20 15:37 47.488513 -111.352922 32 3680ft 4kts
06-Oct-20 15:38 47.489123 -111.353489 318 3680ft 5kts
06-Oct-20 15:39 47.480738 -111.367022 223 3777ft 92kts
06-Oct-20 15:40 47.461662 -111.394330 226 4859ft 99kts
06-Oct-20 15:41 47.437864 -111.414213 194 5802ft 111kts
06-Oct-20 15:42 47.406091 -111.418088 194 6686ft 115kts
06-Oct-20 15:43 47.373861 -111.422381 194 7540ft 117kts
06-Oct-20 15:44 47.341240 -111.426773 195 8342ft 117kts
06-Oct-20 15:45 47.308552 -111.431173 196 9090ft 118kts
06-Oct-20 15:46 47.275713 -111.435594 196 9776ft 120kts
06-Oct-20 15:47 47.241910 -111.440143 198 10418ft 123kts
06-Oct-20 15:48 47.203123 -111.445470 195 10521ft 155kts
06-Oct-20 15:49 47.158494 -111.451395 195 10534ft 163kts
06-Oct-20 15:50 47.112737 -111.457487 194 10542ft 165kts
06-Oct-20 15:51 47.067391 -111.463532 194 10548ft 164kts
06-Oct-20 15:52 47.021646 -111.469621 194 10547ft 165kts
06-Oct-20 15:53 46.975412 -111.475773 194 10486ft 168kts
06-Oct-20 15:54 46.929229 -111.481887 193 10486ft 166kts
06-Oct-20 15:55 46.883192 -111.487988 193 10490ft 165kts
06-Oct-20 15:56 46.837466 -111.494033 193 10504ft 164kts
06-Oct-20 15:57 46.791869 -111.500054 193 10514ft 164kts
06-Oct-20 15:58 46.746155 -111.506078 193 10508ft 165kts
06-Oct-20 15:59 46.700337 -111.512105 193 10510ft 164kts
06-Oct-20 16:00 46.654707 -111.518099 192 10514ft 164kts
06-Oct-20 16:01 46.609174 -111.524071 192 10519ft 164kts
06-Oct-20 16:02 46.562997 -111.530140 191 9970ft 168kts
06-Oct-20 16:03 46.517171 -111.537087 205 9283ft 151kts
06-Oct-20 16:04 46.514602 -111.575888 324 8613ft 125kts
06-Oct-20 16:06 46.545617 -111.599911 291 7982ft 138kts
06-Oct-20 16:07 46.553864 -111.650365 281 7853ft 110kts
06-Oct-20 16:08 46.561061 -111.695252 281 7658ft 125kts
06-Oct-20 16:09 46.568804 -111.744288 281 6942ft 116kts
06-Oct-20 16:10 46.575871 -111.789238 280 6304ft 112kts
06-Oct-20 16:11 46.583263 -111.836340 281 5652ft 124kts
06-Oct-20 16:12 46.589965 -111.879230 283 5046ft 106kts
06-Oct-20 16:13 46.596616 -111.921816 284 4454ft 107kts
06-Oct-20 16:14 46.602455 -111.959682 285 3949ft 82kts
06-Oct-20 16:15 46.603371 -111.970083 214 3880ft 2kts
06-Oct-20 16:16 46.603150 -111.973434 276 3880ft 12kts
06-Oct-20 16:17 46.603564 -111.978606 277 3880ft 14kts
06-Oct-20 16:18 46.603485 -111.983774 267 3880ft 13kts
06-Oct-20 16:19 46.603369 -111.988608 268 3880ft 10kts
06-Oct-20 16:20 46.603241 -111.992844 267 3880ft 10kts
06-Oct-20 16:21 46.603155 -111.996325 269 3880ft 5kts
06-Oct-20 16:21 46.602863 -111.997272 97 3880ft 2kts
06-Oct-20 16:23 46.602854 -111.997087 90 3880ft 0kts
06-Oct-20 16:24 46.602854 -111.997087 90 3880ft 0kts
06-Oct-20 16:24 46.602854 -111.997087 90 3880ft 0kts
06-Oct-20 16:26 46.602854 -111.997087 90 3880ft 0kts

Navigation Log

Ident Type
Flight plan parsing failed, navigation log unavailable